createdAt,value
2023-02-07T00:00:14.996Z,6.13
2023-02-07T00:02:46.358Z,6.85
2023-02-07T00:05:15.845Z,7.88
2023-02-07T00:07:44.810Z,6.45
2023-02-07T00:10:13.393Z,8.93
2023-02-07T00:12:41.971Z,7.43
2023-02-07T00:15:11.346Z,7.43
2023-02-07T00:17:40.113Z,5.88
2023-02-07T00:20:12.923Z,7.65
2023-02-07T00:22:41.434Z,5.30
2023-02-07T00:25:10.102Z,7.00
2023-02-07T00:27:39.166Z,7.50
2023-02-07T00:30:08.853Z,7.15
2023-02-07T00:32:37.600Z,6.75
2023-02-07T00:35:07.057Z,6.38
2023-02-07T00:37:36.602Z,8.23
2023-02-07T00:40:06.779Z,6.70
2023-02-07T00:42:35.332Z,6.40
2023-02-07T00:45:04.062Z,6.95
2023-02-07T00:47:32.611Z,7.32
2023-02-07T00:50:00.873Z,7.13
2023-02-07T00:52:29.156Z,6.07
2023-02-07T00:54:58.845Z,7.05
2023-02-07T00:57:27.252Z,7.05
2023-02-07T00:59:55.637Z,6.65
2023-02-07T01:02:23.864Z,7.28
2023-02-07T01:04:52.546Z,8.43
2023-02-07T01:07:20.836Z,7.35
2023-02-07T01:09:49.286Z,6.95
2023-02-07T01:12:20.340Z,8.15
2023-02-07T01:14:49.991Z,6.78
2023-02-07T01:17:18.973Z,7.15
2023-02-07T01:19:47.380Z,7.95
2023-02-07T01:22:15.730Z,7.07
2023-02-07T01:24:44.034Z,8.07
2023-02-07T01:27:12.802Z,6.53
2023-02-07T01:29:43.178Z,5.95
2023-02-07T01:32:11.618Z,7.53
2023-02-07T01:34:39.897Z,6.70
2023-02-07T01:37:08.866Z,6.80
2023-02-07T01:39:36.948Z,7.45
2023-02-07T01:42:05.643Z,6.78
2023-02-07T01:45:04.810Z,7.55
2023-02-07T01:47:35.891Z,7.40
2023-02-07T01:50:05.195Z,8.60
2023-02-07T01:52:37.881Z,7.85
2023-02-07T01:55:10.585Z,8.27
2023-02-07T01:57:39.791Z,8.27
2023-02-07T02:00:11.822Z,7.82
2023-02-07T02:02:40.636Z,8.90
2023-02-07T02:05:10.829Z,8.20
2023-02-07T02:07:40.034Z,8.40
2023-02-07T02:10:14.462Z,8.80
2023-02-07T02:13:14.960Z,8.57
2023-02-07T02:15:54.344Z,7.65
2023-02-07T02:18:49.238Z,9.35
2023-02-07T02:22:00.857Z,7.97
2023-02-07T02:25:02.153Z,8.18
2023-02-07T02:27:46.902Z,8.13
2023-02-07T02:30:39.099Z,7.25
2023-02-07T02:33:34.265Z,8.60
2023-02-07T02:36:10.647Z,7.60
2023-02-07T02:38:49.239Z,6.80
2023-02-07T02:41:23.410Z,8.57
2023-02-07T02:43:58.471Z,10.23
2023-02-07T02:46:30.169Z,10.40
2023-02-07T02:49:00.873Z,8.13
2023-02-07T02:51:30.912Z,7.68
2023-02-07T02:54:01.173Z,7.85
2023-02-07T02:56:55.499Z,8.80
2023-02-07T03:02:23.274Z,7.82
2023-02-07T03:05:15.667Z,9.07
2023-02-07T03:07:51.434Z,7.78
2023-02-07T03:10:31.014Z,8.65
2023-02-07T03:13:03.492Z,8.75
2023-02-07T03:15:38.645Z,8.60
2023-02-07T03:18:15.892Z,9.38
2023-02-07T03:20:50.333Z,7.88
2023-02-07T03:23:21.169Z,7.20
2023-02-07T03:25:52.621Z,7.65
2023-02-07T03:28:23.405Z,9.93
2023-02-07T03:30:54.230Z,9.73
2023-02-07T03:33:25.507Z,7.03
2023-02-07T03:36:03.664Z,7.13
2023-02-07T03:38:31.972Z,8.23
2023-02-07T03:41:07.282Z,7.13
2023-02-07T03:43:38.810Z,7.57
2023-02-07T03:46:10.772Z,8.52
2023-02-07T03:48:39.703Z,8.60
2023-02-07T03:51:09.551Z,8.98
2023-02-07T03:53:37.709Z,8.43
2023-02-07T03:56:06.581Z,7.93
2023-02-07T03:58:34.784Z,8.70
2023-02-07T04:01:04.730Z,9.40
2023-02-07T04:03:33.103Z,9.25
2023-02-07T04:06:02.709Z,9.15
2023-02-07T04:08:33.622Z,9.98
2023-02-07T04:11:03.462Z,8.40
2023-02-07T04:13:32.543Z,8.20
2023-02-07T04:16:02.538Z,7.88
2023-02-07T04:18:31.053Z,9.10
2023-02-07T04:21:03.350Z,9.35
2023-02-07T04:23:33.882Z,9.85
2023-02-07T04:26:02.546Z,8.60
2023-02-07T04:28:31.861Z,10.32
2023-02-07T04:31:00.101Z,11.18
2023-02-07T04:33:28.397Z,9.40
2023-02-07T04:35:57.702Z,10.68
2023-02-07T04:38:26.918Z,8.63
2023-02-07T04:40:59.802Z,9.43
2023-02-07T04:43:28.304Z,9.50
2023-02-07T04:45:57.120Z,9.63
2023-02-07T04:48:26.097Z,10.68
2023-02-07T04:50:54.982Z,9.77
2023-02-07T04:53:23.367Z,9.93
2023-02-07T04:55:52.555Z,10.13
2023-02-07T04:58:23.608Z,9.00
2023-02-07T05:00:52.113Z,9.20
2023-02-07T05:03:20.373Z,9.18
2023-02-07T05:05:48.702Z,9.40
2023-02-07T05:08:17.258Z,8.48
2023-02-07T05:10:45.746Z,10.15
2023-02-07T05:13:14.009Z,9.32
2023-02-07T05:15:44.549Z,9.02
2023-02-07T05:18:13.254Z,9.68
2023-02-07T05:20:41.808Z,8.57
2023-02-07T05:23:10.513Z,10.38
2023-02-07T05:25:39.175Z,9.65
2023-02-07T05:28:08.120Z,8.48
2023-02-07T05:30:36.751Z,8.13
2023-02-07T05:33:08.566Z,9.25
2023-02-07T05:35:38.906Z,8.73
2023-02-07T05:38:10.016Z,10.35
2023-02-07T05:40:39.133Z,9.60
2023-02-07T05:43:08.010Z,9.30
2023-02-07T05:45:37.467Z,9.40
2023-02-07T05:48:08.152Z,9.50
2023-02-07T05:50:36.942Z,10.20
2023-02-07T05:53:05.653Z,8.60
2023-02-07T05:55:34.148Z,8.75
2023-02-07T05:58:02.561Z,9.23
2023-02-07T06:00:30.984Z,9.73
2023-02-07T06:02:59.154Z,8.93
2023-02-07T06:05:32.037Z,8.98
2023-02-07T06:08:00.949Z,10.70
2023-02-07T06:10:29.425Z,9.07
2023-02-07T06:12:57.637Z,9.73
2023-02-07T06:15:26.291Z,10.48
2023-02-07T06:17:54.800Z,10.82
2023-02-07T06:20:23.470Z,8.38
2023-02-07T06:22:53.219Z,11.25
2023-02-07T06:25:21.891Z,10.38
2023-02-07T06:27:50.275Z,10.65
2023-02-07T06:30:19.074Z,9.90
2023-02-07T06:32:47.196Z,10.20
2023-02-07T06:35:15.714Z,9.23
2023-02-07T06:37:44.400Z,10.52
2023-02-07T06:40:14.942Z,10.85
2023-02-07T06:42:43.963Z,10.98
2023-02-07T06:45:12.551Z,10.38
2023-02-07T06:47:41.230Z,11.95
2023-02-07T06:50:10.351Z,10.77
2023-02-07T06:52:38.565Z,12.52
2023-02-07T06:55:07.392Z,10.45
2023-02-07T06:57:37.715Z,11.48
2023-02-07T07:00:06.629Z,10.63
2023-02-07T07:02:34.836Z,11.45
2023-02-07T07:05:04.030Z,12.75
2023-02-07T07:07:32.389Z,11.57
2023-02-07T07:10:00.790Z,12.15
2023-02-07T07:12:29.689Z,10.52
2023-02-07T07:14:59.085Z,12.10
2023-02-07T07:17:27.357Z,11.07
2023-02-07T07:19:55.433Z,10.05
2023-02-07T07:22:23.461Z,11.23
2023-02-07T07:24:51.560Z,10.70
2023-02-07T07:27:19.975Z,10.98
2023-02-07T07:29:48.149Z,12.20
2023-02-07T07:32:32.309Z,10.35
2023-02-07T07:35:02.723Z,9.80
2023-02-07T07:37:31.006Z,11.30
2023-02-07T07:39:59.795Z,10.65
2023-02-07T07:42:28.921Z,11.05
2023-02-07T07:44:57.276Z,12.30
2023-02-07T07:47:28.520Z,10.70
2023-02-07T07:49:56.884Z,11.27
2023-02-07T07:52:25.284Z,10.43
2023-02-07T07:54:53.767Z,10.15
2023-02-07T07:57:22.341Z,11.70
2023-02-07T07:59:50.854Z,10.43
2023-02-07T08:02:19.055Z,12.23
2023-02-07T08:04:48.806Z,13.27
2023-02-07T08:07:17.764Z,11.43
2023-02-07T08:09:46.460Z,12.00
2023-02-07T08:12:15.920Z,11.68
2023-02-07T08:14:44.318Z,12.25
2023-02-07T08:17:13.429Z,10.77
2023-02-07T08:19:41.907Z,10.15
2023-02-07T08:22:14.460Z,10.70
2023-02-07T08:24:43.357Z,10.82
2023-02-07T08:27:11.967Z,10.75
2023-02-07T08:29:40.430Z,9.77
2023-02-07T08:32:08.810Z,11.38
2023-02-07T08:34:38.296Z,11.82
2023-02-07T08:37:07.318Z,10.88
2023-02-07T08:39:37.696Z,11.90
2023-02-07T08:42:08.204Z,11.18
2023-02-07T08:44:37.103Z,12.40
2023-02-07T08:47:06.270Z,10.27
2023-02-07T08:49:34.681Z,11.82
2023-02-07T08:52:03.058Z,11.30
2023-02-07T08:54:31.233Z,10.98
2023-02-07T08:57:01.009Z,11.32
2023-02-07T08:59:29.326Z,11.80
2023-02-07T09:01:57.590Z,10.57
2023-02-07T09:04:26.999Z,10.43
2023-02-07T09:06:55.202Z,9.52
2023-02-07T09:09:23.373Z,10.82
2023-02-07T09:11:51.817Z,11.30
2023-02-07T09:14:21.680Z,11.30
2023-02-07T09:16:49.971Z,10.48
2023-02-07T09:19:18.299Z,12.15
2023-02-07T09:21:46.322Z,11.10
2023-02-07T09:24:14.497Z,9.75
2023-02-07T09:26:42.941Z,9.18
2023-02-07T09:29:14.339Z,10.00
2023-02-07T09:31:44.478Z,9.65
2023-02-07T09:34:12.627Z,9.00
2023-02-07T09:36:40.915Z,9.50
2023-02-07T09:39:08.951Z,9.77
2023-02-07T09:41:43.699Z,9.63
2023-02-07T09:44:17.452Z,9.75
2023-02-07T09:49:33.424Z,8.35
2023-02-07T09:52:05.719Z,10.45
2023-02-07T09:54:39.557Z,9.25
2023-02-07T09:57:15.257Z,10.52
2023-02-07T09:59:51.665Z,9.75
2023-02-07T10:02:26.950Z,9.50
2023-02-07T10:04:59.966Z,9.02
2023-02-07T10:07:27.936Z,8.45
2023-02-07T10:09:56.514Z,8.05
2023-02-07T10:12:46.725Z,10.40
2023-02-07T10:15:32.884Z,9.85
2023-02-07T10:18:22.140Z,8.50
2023-02-07T10:21:01.167Z,10.27
2023-02-07T10:23:40.919Z,9.90
2023-02-07T10:26:17.580Z,8.98
2023-02-07T10:29:21.033Z,10.27
2023-02-07T10:31:53.679Z,8.20
2023-02-07T10:34:25.877Z,7.80
2023-02-07T10:36:58.111Z,8.63
2023-02-07T10:39:32.971Z,8.88
2023-02-07T10:42:01.245Z,9.27
2023-02-07T10:44:29.790Z,8.45
2023-02-07T10:47:03.024Z,7.30
2023-02-07T10:49:36.187Z,7.78
2023-02-07T10:52:14.887Z,7.50
2023-02-07T10:54:52.805Z,9.50
2023-02-07T10:57:22.314Z,8.23
2023-02-07T10:59:51.094Z,7.35
2023-02-07T11:02:48.430Z,8.63
2023-02-07T11:05:37.569Z,7.60
2023-02-07T11:08:10.166Z,8.40
2023-02-07T11:10:41.126Z,10.95
2023-02-07T11:13:15.647Z,8.52
2023-02-07T11:15:53.884Z,8.77
2023-02-07T11:18:38.093Z,8.25
2023-02-07T11:23:38.151Z,6.88
2023-02-07T11:26:07.146Z,7.25
2023-02-07T11:28:35.522Z,8.77
2023-02-07T11:31:08.882Z,7.93
2023-02-07T11:33:38.634Z,8.13
2023-02-07T11:36:32.734Z,8.15
2023-02-07T11:39:02.217Z,12.55
2023-02-07T11:41:32.861Z,6.82
2023-02-07T11:44:03.585Z,6.75
2023-02-07T11:46:36.302Z,8.20
2023-02-07T11:49:09.462Z,7.55
2023-02-07T11:51:40.367Z,7.18
2023-02-07T11:54:09.938Z,7.20
2023-02-07T11:56:40.972Z,7.18
2023-02-07T11:59:16.001Z,6.95
2023-02-07T12:01:45.851Z,7.72
2023-02-07T12:04:18.197Z,6.85
2023-02-07T12:06:54.235Z,6.90
2023-02-07T12:09:31.938Z,7.22
2023-02-07T12:12:04.525Z,6.70
2023-02-07T12:14:40.838Z,7.18
2023-02-07T12:17:16.633Z,6.95
2023-02-07T12:19:54.193Z,7.22
2023-02-07T12:22:30.212Z,6.20
2023-02-07T12:25:04.535Z,6.47
2023-02-07T12:27:38.637Z,6.32
2023-02-07T12:30:15.995Z,5.55
2023-02-07T12:32:55.787Z,6.22
2023-02-07T12:35:29.752Z,6.07
2023-02-07T12:40:35.353Z,5.85
2023-02-07T12:43:11.400Z,5.47
2023-02-07T12:45:53.225Z,5.13
2023-02-07T12:48:31.897Z,5.85
2023-02-07T12:51:11.034Z,6.53
2023-02-07T12:53:58.858Z,6.28
2023-02-07T12:56:41.771Z,5.35
2023-02-07T12:59:21.220Z,5.18
2023-02-07T13:01:55.020Z,4.50
2023-02-07T13:04:49.479Z,4.05
2023-02-07T13:07:30.771Z,5.30
2023-02-07T13:10:12.649Z,4.28
2023-02-07T13:12:47.349Z,4.68
2023-02-07T13:15:26.136Z,5.45
2023-02-07T13:18:01.560Z,4.68
2023-02-07T13:20:43.534Z,6.47
2023-02-07T13:23:18.280Z,5.55
2023-02-07T13:25:51.455Z,7.05
2023-02-07T13:28:26.656Z,4.43
2023-02-07T13:30:57.494Z,4.95
2023-02-07T13:33:32.316Z,5.65
2023-02-07T13:36:07.167Z,5.63
2023-02-07T13:39:12.930Z,4.80
2023-02-07T13:41:51.960Z,4.57
2023-02-07T13:44:26.601Z,4.97
2023-02-07T13:47:11.690Z,5.22
2023-02-07T13:49:47.703Z,4.63
2023-02-07T13:52:22.131Z,6.22
2023-02-07T13:54:57.886Z,4.85
2023-02-07T13:58:00.750Z,4.75
2023-02-07T14:00:31.113Z,5.30
2023-02-07T14:03:01.613Z,6.03
2023-02-07T14:05:32.061Z,5.05
2023-02-07T14:08:03.140Z,4.32
2023-02-07T14:10:45.785Z,4.70
2023-02-07T14:13:32.034Z,4.75
2023-02-07T14:16:07.287Z,5.07
2023-02-07T14:18:42.674Z,4.95
2023-02-07T14:21:31.337Z,6.28
2023-02-07T14:24:04.496Z,4.97
2023-02-07T14:26:57.586Z,4.82
2023-02-07T14:30:02.673Z,4.22
2023-02-07T14:32:44.365Z,4.53
2023-02-07T14:35:31.619Z,5.38
2023-02-07T14:38:09.993Z,4.70
2023-02-07T14:41:08.433Z,4.95
2023-02-07T14:44:07.397Z,4.20
2023-02-07T14:46:41.960Z,4.65
2023-02-07T14:49:20.317Z,4.07
2023-02-07T14:51:51.109Z,4.40
2023-02-07T14:54:28.110Z,5.88
2023-02-07T14:57:04.596Z,4.80
2023-02-07T14:59:37.764Z,4.20
2023-02-07T15:02:30.767Z,4.10
2023-02-07T15:05:16.729Z,3.53
2023-02-07T15:07:47.258Z,5.57
2023-02-07T15:10:17.444Z,4.43
2023-02-07T15:12:45.743Z,4.80
2023-02-07T15:15:22.131Z,4.90
2023-02-07T15:17:51.698Z,4.93
2023-02-07T15:20:25.053Z,4.45
2023-02-07T15:22:56.134Z,4.35
2023-02-07T15:25:25.195Z,3.83
2023-02-07T15:28:09.239Z,4.47
2023-02-07T15:30:39.493Z,4.50
2023-02-07T15:33:24.262Z,4.60
2023-02-07T15:35:53.813Z,4.50
2023-02-07T15:38:25.766Z,5.00
2023-02-07T15:40:57.113Z,4.60
2023-02-07T15:43:29.806Z,5.00
2023-02-07T15:46:07.741Z,4.10
2023-02-07T15:48:48.479Z,4.10
2023-02-07T15:51:20.919Z,3.92
2023-02-07T15:53:56.702Z,3.45
2023-02-07T15:56:26.084Z,4.35
2023-02-07T15:58:58.755Z,4.38
2023-02-07T16:01:29.944Z,3.78
2023-02-07T16:04:00.174Z,3.75
2023-02-07T16:06:32.728Z,4.95
2023-02-07T16:09:04.524Z,4.60
2023-02-07T16:11:41.458Z,4.72
2023-02-07T16:14:22.479Z,6.18
2023-02-07T16:16:55.127Z,4.70
2023-02-07T16:19:26.851Z,4.85
2023-02-07T16:22:03.220Z,4.75
2023-02-07T16:24:36.567Z,4.60
2023-02-07T16:27:05.870Z,4.50
2023-02-07T16:29:37.145Z,4.82
2023-02-07T16:32:05.818Z,4.47
2023-02-07T16:34:34.043Z,5.05
2023-02-07T16:37:04.395Z,4.75
2023-02-07T16:39:32.473Z,4.82
2023-02-07T16:42:05.068Z,4.50
2023-02-07T16:44:36.439Z,4.28
2023-02-07T16:47:05.240Z,4.47
2023-02-07T16:49:34.420Z,5.18
2023-02-07T16:52:03.893Z,4.88
2023-02-07T16:54:32.239Z,4.57
2023-02-07T16:57:04.048Z,5.90
2023-02-07T16:59:33.035Z,4.28
2023-02-07T17:02:01.426Z,5.97
2023-02-07T17:04:29.540Z,5.55
2023-02-07T17:06:57.818Z,6.07
2023-02-07T17:09:27.579Z,5.10
2023-02-07T17:11:56.428Z,4.60
2023-02-07T17:14:25.281Z,5.07
2023-02-07T17:16:53.253Z,4.78
2023-02-07T17:19:24.010Z,4.85
2023-02-07T17:21:53.526Z,5.07
2023-02-07T17:24:21.796Z,4.60
2023-02-07T17:26:54.597Z,4.85
2023-02-07T17:29:23.895Z,4.63
2023-02-07T17:31:52.730Z,4.72
2023-02-07T17:34:21.073Z,6.03
2023-02-07T17:36:51.205Z,4.97
2023-02-07T17:39:20.713Z,4.55
2023-02-07T17:41:50.639Z,4.68
2023-02-07T17:44:23.210Z,4.57
2023-02-07T17:46:51.587Z,4.43
2023-02-07T17:49:20.488Z,5.28
2023-02-07T17:51:48.861Z,5.05
2023-02-07T17:54:17.346Z,5.55
2023-02-07T17:56:46.115Z,5.00
2023-02-07T17:59:25.658Z,5.68
2023-02-07T18:01:54.256Z,4.97
2023-02-07T18:04:23.039Z,5.80
2023-02-07T18:06:51.124Z,5.30
2023-02-07T18:09:21.081Z,8.40
2023-02-07T18:11:50.053Z,6.63
2023-02-07T18:14:19.434Z,5.88
2023-02-07T18:16:49.618Z,5.80
2023-02-07T18:19:20.431Z,6.20
2023-02-07T18:21:49.898Z,6.57
2023-02-07T18:24:18.542Z,5.78
2023-02-07T18:26:47.236Z,6.07
2023-02-07T18:29:16.919Z,5.90
2023-02-07T18:31:46.192Z,5.95
2023-02-07T18:34:17.492Z,5.65
2023-02-07T18:36:46.789Z,7.00
2023-02-07T18:39:16.297Z,5.78
2023-02-07T18:41:45.718Z,7.03
2023-02-07T18:44:14.707Z,5.68
2023-02-07T18:46:43.073Z,5.97
2023-02-07T18:49:13.408Z,5.43
2023-02-07T18:51:44.963Z,6.60
2023-02-07T18:54:13.764Z,8.70
2023-02-07T18:56:42.473Z,7.45
2023-02-07T18:59:12.261Z,6.70
2023-02-07T19:01:40.892Z,7.32
2023-02-07T19:04:10.177Z,6.28
2023-02-07T19:06:38.876Z,6.85
2023-02-07T19:09:10.622Z,7.85
2023-02-07T19:11:41.222Z,7.00
2023-02-07T19:14:15.767Z,8.20
2023-02-07T19:16:46.498Z,7.13
2023-02-07T19:19:16.522Z,7.47
2023-02-07T19:21:44.847Z,7.85
2023-02-07T19:24:19.017Z,8.00
2023-02-07T19:26:48.002Z,8.43
2023-02-07T19:29:18.648Z,7.00
2023-02-07T19:31:48.082Z,7.70
2023-02-07T19:34:17.483Z,7.68
2023-02-07T19:36:46.861Z,8.85
2023-02-07T19:39:19.437Z,8.80
2023-02-07T19:41:49.288Z,8.38
2023-02-07T19:44:20.730Z,8.23
2023-02-07T19:46:52.683Z,8.70
2023-02-07T19:49:20.968Z,7.82
2023-02-07T19:51:50.587Z,8.00
2023-02-07T19:54:20.519Z,8.57
2023-02-07T19:56:51.209Z,10.95
2023-02-07T19:59:19.949Z,9.05
2023-02-07T20:01:48.153Z,9.02
2023-02-07T20:04:16.804Z,9.00
2023-02-07T20:06:44.971Z,9.07
2023-02-07T20:09:13.270Z,10.05
2023-02-07T20:11:42.963Z,9.27
2023-02-07T20:14:11.266Z,8.63
2023-02-07T20:16:40.224Z,9.18
2023-02-07T20:19:09.181Z,8.82
2023-02-07T20:21:38.347Z,8.90
2023-02-07T20:24:07.542Z,8.65
2023-02-07T20:26:39.145Z,9.60
2023-02-07T20:29:11.785Z,9.30
2023-02-07T20:31:41.114Z,8.75
2023-02-07T20:34:09.517Z,8.80
2023-02-07T20:36:41.421Z,8.90
2023-02-07T20:39:12.547Z,8.30
2023-02-07T20:41:43.362Z,8.02
2023-02-07T20:44:16.115Z,7.28
2023-02-07T20:46:46.594Z,8.40
2023-02-07T20:49:17.486Z,7.38
2023-02-07T20:51:48.733Z,6.28
2023-02-07T20:54:18.374Z,7.55
2023-02-07T20:56:46.705Z,7.88
2023-02-07T20:59:18.996Z,8.93
2023-02-07T21:01:47.789Z,8.65
2023-02-07T21:04:15.868Z,6.47
2023-02-07T21:06:44.959Z,9.57
2023-02-07T21:09:14.169Z,8.05
2023-02-07T21:11:45.216Z,8.32
2023-02-07T21:14:18.441Z,8.98
2023-02-07T21:16:47.048Z,7.47
2023-02-07T21:19:17.830Z,8.25
2023-02-07T21:21:47.135Z,8.85
2023-02-07T21:24:16.451Z,8.95
2023-02-07T21:26:44.717Z,9.23
2023-02-07T21:29:13.702Z,9.48
2023-02-07T21:31:43.380Z,7.50
2023-02-07T21:34:13.167Z,7.32
2023-02-07T21:36:41.468Z,8.13
2023-02-07T21:39:12.357Z,6.93
2023-02-07T21:41:42.360Z,7.32
2023-02-07T21:44:11.674Z,8.20
2023-02-07T21:46:43.350Z,6.38
2023-02-07T21:49:14.816Z,6.55
2023-02-07T21:51:44.725Z,5.80
2023-02-07T21:54:12.807Z,7.40
2023-02-07T21:56:43.523Z,5.90
2023-02-07T21:59:14.477Z,7.53
2023-02-07T22:01:45.020Z,6.57
2023-02-07T22:04:14.423Z,6.00
2023-02-07T22:06:44.293Z,8.10
2023-02-07T22:09:14.468Z,6.68
2023-02-07T22:11:42.765Z,7.93
2023-02-07T22:14:12.901Z,7.60
2023-02-07T22:16:41.954Z,7.18
2023-02-07T22:19:17.256Z,6.93
2023-02-07T22:21:46.086Z,8.75
2023-02-07T22:24:16.201Z,9.55
2023-02-07T22:26:45.611Z,9.50
2023-02-07T22:29:14.300Z,10.45
2023-02-07T22:31:43.148Z,11.85
2023-02-07T22:34:14.145Z,10.93
2023-02-07T22:36:44.779Z,11.57
2023-02-07T22:39:14.609Z,10.43
2023-02-07T22:41:42.650Z,10.05
2023-02-07T22:44:10.762Z,9.60
2023-02-07T22:46:39.486Z,9.82
2023-02-07T22:49:07.536Z,10.43
2023-02-07T22:51:38.491Z,10.00
2023-02-07T22:54:09.053Z,8.98
2023-02-07T22:56:39.056Z,8.18
2023-02-07T22:59:08.220Z,8.10
2023-02-07T23:01:39.112Z,7.07
2023-02-07T23:04:09.513Z,8.15
2023-02-07T23:06:39.053Z,8.38
2023-02-07T23:09:07.089Z,8.55
2023-02-07T23:11:35.524Z,8.25
2023-02-07T23:14:03.527Z,8.40
2023-02-07T23:16:32.346Z,7.20
2023-02-07T23:19:07.001Z,8.20
2023-02-07T23:21:35.152Z,8.77
2023-02-07T23:24:04.899Z,9.65
2023-02-07T23:26:33.247Z,8.60
2023-02-07T23:29:01.580Z,8.52
2023-02-07T23:31:30.091Z,9.63
2023-02-07T23:33:58.480Z,10.27
2023-02-07T23:36:27.226Z,9.48
2023-02-07T23:38:55.174Z,10.00
2023-02-07T23:41:24.725Z,9.80
2023-02-07T23:43:52.740Z,10.15
2023-02-07T23:46:21.193Z,9.10
2023-02-07T23:48:49.194Z,9.80
2023-02-07T23:51:17.334Z,10.30
2023-02-07T23:53:46.780Z,9.80
2023-02-07T23:56:16.811Z,9.23
2023-02-07T23:58:47.124Z,9.00
